Time;durP1;ratioP1;P1;durP2;ratioP2;P2;SDS_P1;SDS_P2;PMS_P1;PMS_P2;Temp;Humidity;BMP_temperature;BMP_pressure;BME280_temperature;BME280_humidity;BME280_pressure;Samples;Min_cycle;Max_cycle;Signal;HPM_P1;HPM_P2
2023/05/14 00:01:52;;;;;;;21.30;14.48;;;;;;;;;;6216248;23;20370;-76
2023/05/14 00:04:21;;;;;;;24.60;14.85;;;;;;;;;;6241514;23;20445;-77
2023/05/14 00:06:47;;;;;;;18.85;14.02;;;;;;;;;;6240774;23;20370;-77
2023/05/14 00:09:13;;;;;;;19.95;14.20;;;;;;;;;;6216203;23;20390;-77
2023/05/14 00:11:39;;;;;;;23.25;15.07;;;;;;;;;;6216563;23;20382;-77
2023/05/14 00:14:05;;;;;;;20.70;14.63;;;;;;;;;;6243376;23;20835;-77
2023/05/14 00:16:31;;;;;;;21.43;15.00;;;;;;;;;;6244205;23;20370;-77
2023/05/14 00:18:57;;;;;;;22.63;14.95;;;;;;;;;;6244168;23;20596;-77
2023/05/14 00:21:23;;;;;;;22.20;14.30;;;;;;;;;;6218477;23;20373;-77
2023/05/14 00:23:49;;;;;;;21.90;15.05;;;;;;;;;;6243814;23;20366;-77
2023/05/14 00:26:15;;;;;;;25.90;16.42;;;;;;;;;;6243475;23;20369;-77
2023/05/14 00:28:41;;;;;;;24.13;15.20;;;;;;;;;;6243629;23;20389;-78
2023/05/14 00:31:07;;;;;;;22.55;15.18;;;;;;;;;;6244827;23;20362;-78
2023/05/14 00:33:34;;;;;;;21.63;14.15;;;;;;;;;;6217751;23;20393;-77
2023/05/14 00:36:00;;;;;;;20.83;14.00;;;;;;;;;;6243691;23;20365;-77
2023/05/14 00:38:27;;;;;;;23.35;13.65;;;;;;;;;;6218724;23;20362;-77
2023/05/14 00:40:53;;;;;;;21.05;13.75;;;;;;;;;;6244623;23;20449;-77
2023/05/14 00:43:20;;;;;;;27.20;13.90;;;11.30;99.90;;;;;;6219083;23;20406;-77
2023/05/14 00:45:50;;;;;;;20.17;13.55;;;11.50;99.90;;;;;;6243388;23;20915;-77
2023/05/14 00:48:16;;;;;;;20.58;13.48;;;;;;;;;;6217863;23;20696;-77
2023/05/14 00:50:42;;;;;;;21.05;13.60;;;;;;;;;;6242791;23;20723;-76
2023/05/14 00:53:09;;;;;;;24.38;13.18;;;;;;;;;;6243763;23;20366;-77
2023/05/14 00:55:40;;;;;;;21.85;12.88;;;;;;;;;;6243031;23;20441;-77
2023/05/14 00:58:07;;;;;;;21.95;13.82;;;;;;;;;;6244547;23;20365;-77
2023/05/14 01:00:33;;;;;;;20.55;13.32;;;;;;;;;;6243407;23;20428;-77
2023/05/14 01:03:00;;;;;;;22.42;13.32;;;;;;;;;;6243994;23;20382;-77
2023/05/14 01:05:29;;;;;;;22.23;13.98;;;;;;;;;;6218844;23;20441;-77
2023/05/14 01:08:06;;;;;;;23.40;13.82;;;11.30;99.90;;;;;;6243218;23;20397;-77
2023/05/14 01:10:48;;;;;;;19.30;12.73;;;10.90;99.90;;;;;;6242763;23;20386;-77
2023/05/14 01:13:19;;;;;;;23.33;13.48;;;;;;;;;;6218755;23;20382;-77
2023/05/14 01:15:47;;;;;;;19.95;13.10;;;11.10;99.90;;;;;;6242418;23;20482;-77
2023/05/14 01:18:16;;;;;;;21.52;12.75;;;10.70;99.90;;;;;;6243744;23;20369;-77
2023/05/14 01:20:44;;;;;;;20.85;12.82;;;;;;;;;;6243169;23;20457;-77
2023/05/14 01:23:10;;;;;;;19.00;12.40;;;;;;;;;;6243401;23;20393;-77
2023/05/14 01:25:37;;;;;;;20.40;12.82;;;;;;;;;;6217473;23;20361;-76
2023/05/14 01:28:31;;;;;;;20.50;12.32;;;11.40;99.90;;;;;;6218172;23;20802;-76
2023/05/14 01:31:03;;;;;;;18.73;11.88;;;;;;;;;;6241850;23;20910;-77
2023/05/14 01:33:31;;;;;;;17.77;12.00;;;;;;;;;;6241941;23;20359;-77
2023/05/14 01:35:57;;;;;;;19.98;12.50;;;;;;;;;;6217955;23;20369;-77
2023/05/14 01:38:24;;;;;;;18.30;11.50;;;;;;;;;;6243538;23;20411;-77
2023/05/14 01:40:50;;;;;;;21.02;12.18;;;;;;;;;;6243094;23;20362;-77
2023/05/14 01:43:16;;;;;;;18.48;11.65;;;;;;;;;;6243544;23;20365;-77
2023/05/14 01:45:43;;;;;;;20.65;11.68;;;;;;;;;;6242634;23;20696;-77
2023/05/14 01:48:09;;;;;;;20.73;11.52;;;;;;;;;;6217267;23;20445;-77
2023/05/14 01:50:35;;;;;;;20.05;11.80;;;;;;;;;;6242048;23;20875;-78
2023/05/14 01:53:01;;;;;;;20.23;11.90;;;;;;;;;;6243337;23;20420;-76
2023/05/14 01:55:27;;;;;;;20.73;12.40;;;;;;;;;;6218559;23;20362;-76
2023/05/14 01:57:54;;;;;;;19.70;11.63;;;;;;;;;;6242572;23;20373;-76
2023/05/14 02:00:20;;;;;;;19.15;11.82;;;;;;;;;;6243855;23;20366;-76
2023/05/14 02:02:46;;;;;;;19.65;12.07;;;;;;;;;;6192634;23;20696;-76
2023/05/14 02:05:12;;;;;;;23.02;12.50;;;;;;;;;;6218146;23;20391;-76
2023/05/14 02:07:39;;;;;;;21.42;12.75;;;;;;;;;;6217593;23;20366;-76
2023/05/14 02:10:05;;;;;;;24.87;14.87;;;;;;;;;;6218186;23;20452;-75
2023/05/14 02:12:31;;;;;;;23.05;14.55;;;;;;;;;;6217479;23;20714;-76
2023/05/14 02:14:57;;;;;;;23.10;14.63;;;;;;;;;;6243645;23;20420;-76
2023/05/14 02:17:24;;;;;;;24.23;14.47;;;;;;;;;;6216869;23;20362;-76
2023/05/14 02:19:50;;;;;;;24.15;14.20;;;;;;;;;;6217624;23;20372;-76
2023/05/14 02:22:16;;;;;;;29.53;15.50;;;;;;;;;;6218171;23;20372;-77
2023/05/14 02:24:42;;;;;;;27.17;14.55;;;;;;;;;;6243623;23;20394;-77
2023/05/14 02:27:08;;;;;;;25.10;14.07;;;;;;;;;;6217713;23;20366;-77
2023/05/14 02:29:34;;;;;;;25.95;14.15;;;;;;;;;;6217383;23;20481;-77
2023/05/14 02:32:00;;;;;;;26.27;14.73;;;;;;;;;;6242411;23;20362;-77
2023/05/14 02:34:26;;;;;;;24.15;13.40;;;;;;;;;;6218201;23;20433;-77
2023/05/14 02:36:52;;;;;;;21.63;14.20;;;;;;;;;;6241528;23;20377;-76
2023/05/14 02:39:18;;;;;;;23.15;13.80;;;;;;;;;;6217599;23;20362;-77
2023/05/14 02:41:44;;;;;;;23.88;13.80;;;;;;;;;;6244186;23;20461;-76
2023/05/14 02:44:10;;;;;;;26.83;14.38;;;;;;;;;;6243011;23;20373;-76
2023/05/14 02:46:37;;;;;;;27.83;14.32;;;;;;;;;;6241263;23;20369;-76
2023/05/14 02:49:03;;;;;;;28.52;14.55;;;;;;;;;;6242710;23;20392;-76
2023/05/14 02:51:29;;;;;;;22.15;14.55;;;;;;;;;;6243180;23;20828;-77
2023/05/14 02:53:55;;;;;;;22.73;14.23;;;;;;;;;;6217576;23;20448;-77
2023/05/14 02:56:21;;;;;;;24.50;14.30;;;;;;;;;;6240813;23;20419;-76
2023/05/14 02:58:47;;;;;;;23.83;13.50;;;;;;;;;;6242692;23;20837;-76
2023/05/14 03:01:13;;;;;;;27.40;14.60;;;;;;;;;;6215951;23;20401;-77
2023/05/14 03:03:41;;;;;;;24.15;13.93;;;;;;;;;;6192545;23;20365;-75
2023/05/14 03:06:07;;;;;;;23.55;13.45;;;;;;;;;;6240388;23;20377;-76
2023/05/14 03:08:33;;;;;;;26.02;14.38;;;;;;;;;;6242003;23;20448;-77
2023/05/14 03:10:59;;;;;;;25.40;13.77;;;;;;;;;;6241646;23;20362;-76
2023/05/14 03:13:25;;;;;;;28.58;14.45;;;;;;;;;;6242997;23;20890;-76
2023/05/14 03:15:53;;;;;;;25.33;14.07;;;;;;;;;;6217334;23;20456;-76
2023/05/14 03:18:20;;;;;;;25.05;13.73;;;;;;;;;;6242613;23;20397;-76
2023/05/14 03:20:46;;;;;;;27.38;14.68;;;;;;;;;;6216497;23;20372;-76
2023/05/14 03:23:13;;;;;;;25.85;14.63;;;;;;;;;;6217884;23;20370;-75
2023/05/14 03:25:39;;;;;;;24.00;14.07;;;;;;;;;;6242722;23;20391;-76
2023/05/14 03:28:05;;;;;;;23.98;14.20;;;;;;;;;;6242509;23;20448;-77
2023/05/14 03:30:32;;;;;;;24.77;14.10;;;;;;;;;;6215275;23;20843;-77
2023/05/14 03:32:58;;;;;;;26.05;13.88;;;;;;;;;;6242450;23;20440;-76
2023/05/14 03:35:24;;;;;;;28.23;15.13;;;;;;;;;;6242522;23;20393;-77
2023/05/14 03:37:51;;;;;;;30.48;16.40;;;;;;;;;;6217698;23;20366;-77
2023/05/14 03:40:17;;;;;;;26.30;15.40;;;;;;;;;;6217110;23;20900;-77
2023/05/14 03:42:44;;;;;;;28.63;15.25;;;;;;;;;;6241350;23;20361;-77
2023/05/14 03:45:10;;;;;;;26.15;15.38;;;;;;;;;;6242124;23;20378;-77
2023/05/14 03:47:36;;;;;;;25.17;15.00;;;;;;;;;;6242787;23;20365;-76
2023/05/14 03:50:02;;;;;;;25.55;15.60;;;;;;;;;;6193580;23;20727;-76
2023/05/14 03:52:28;;;;;;;30.50;15.43;;;;;;;;;;6243566;23;20361;-76
2023/05/14 03:54:55;;;;;;;30.88;15.80;;;;;;;;;;6219110;23;20441;-76
2023/05/14 03:57:21;;;;;;;32.50;17.20;;;;;;;;;;6243986;23;20373;-76
2023/05/14 03:59:47;;;;;;;32.80;17.55;;;;;;;;;;6217053;23;20369;-76
2023/05/14 04:02:13;;;;;;;35.60;18.20;;;;;;;;;;6218889;23;20369;-76
2023/05/14 04:04:39;;;;;;;32.50;18.58;;;;;;;;;;6194194;23;20380;-76
2023/05/14 04:07:05;;;;;;;34.63;17.73;;;;;;;;;;6244511;23;20370;-76
2023/05/14 04:09:31;;;;;;;34.60;18.40;;;;;;;;;;6194073;23;20390;-76
2023/05/14 04:11:57;;;;;;;33.60;18.10;;;;;;;;;;6218042;23;20384;-76
2023/05/14 04:14:24;;;;;;;31.45;17.85;;;;;;;;;;6192977;23;20373;-77
2023/05/14 04:16:50;;;;;;;34.33;18.67;;;;;;;;;;6218795;23;20362;-76
2023/05/14 04:19:16;;;;;;;30.45;17.58;;;;;;;;;;6244177;23;20373;-76
2023/05/14 04:21:42;;;;;;;36.35;18.30;;;;;;;;;;6217462;23;20373;-77
2023/05/14 04:24:08;;;;;;;31.77;17.85;;;;;;;;;;6218590;23;20734;-77
2023/05/14 04:26:34;;;;;;;36.80;18.20;;;;;;;;;;6219121;23;20397;-77
2023/05/14 04:29:01;;;;;;;31.13;17.10;;;;;;;;;;6244076;23;20473;-77
2023/05/14 04:31:28;;;;;;;33.73;17.93;;;;;;;;;;6218289;23;20836;-77
2023/05/14 04:33:54;;;;;;;35.67;18.13;;;;;;;;;;6217086;23;20362;-77
2023/05/14 04:36:20;;;;;;;28.85;16.60;;;;;;;;;;6244170;23;20365;-77
2023/05/14 04:38:46;;;;;;;31.95;16.95;;;;;;;;;;6244618;23;20366;-78
2023/05/14 04:41:12;;;;;;;33.33;17.55;;;;;;;;;;6245110;23;20362;-79
2023/05/14 04:43:39;;;;;;;31.75;16.55;;;10.80;99.90;;;;;;6219395;23;20370;-79
2023/05/14 04:46:05;;;;;;;33.22;16.77;;;;;;;;;;6223702;23;20370;-78
2023/05/14 04:48:31;;;;;;;32.30;16.50;;;;;;;;;;6245788;23;20394;-78
2023/05/14 04:50:57;;;;;;;32.03;16.33;;;;;;;;;;6219460;23;20499;-79
2023/05/14 04:53:23;;;;;;;34.47;16.65;;;;;;;;;;6244597;23;20361;-79
2023/05/14 04:55:50;;;;;;;30.63;16.92;;;;;;;;;;6246190;23;20362;-79
2023/05/14 04:58:16;;;;;;;28.80;15.50;;;;;;;;;;6246912;23;20369;-79
2023/05/14 05:00:43;;;;;;;36.58;16.30;;;;;;;;;;6248962;23;20401;-78
2023/05/14 05:03:09;;;;;;;31.42;15.73;;;;;;;;;;6248262;23;20415;-79
2023/05/14 05:05:35;;;;;;;31.13;16.17;;;;;;;;;;6247367;23;20366;-80
2023/05/14 05:08:01;;;;;;;29.30;15.70;;;;;;;;;;6222672;23;20954;-80
2023/05/14 05:10:27;;;;;;;29.13;15.90;;;;;;;;;;6248176;23;20386;-80
2023/05/14 05:12:53;;;;;;;31.33;16.07;;;;;;;;;;6222196;23;20452;-79
2023/05/14 05:15:19;;;;;;;29.50;16.13;;;;;;;;;;6222988;23;20707;-80
2023/05/14 05:17:46;;;;;;;35.72;16.08;;;;;;;;;;6249960;23;20688;-80
2023/05/14 05:20:12;;;;;;;28.50;15.45;;;;;;;;;;6253846;23;20366;-79
2023/05/14 05:22:38;;;;;;;29.48;15.50;;;;;;;;;;6225767;23;20444;-81
2023/05/14 05:25:05;;;;;;;30.67;15.13;;;;;;;;;;6223179;23;20373;-78
2023/05/14 05:27:34;;;;;;;34.08;15.43;;;;;;;;;;6248266;23;20398;-78
2023/05/14 05:30:03;;;;;;;34.03;16.17;;;;;;;;;;6253354;22;20373;-77
2023/05/14 05:32:30;;;;;;;30.38;15.73;;;;;;;;;;6265595;23;20370;-78
2023/05/14 05:34:56;;;;;;;37.25;16.25;;;;;;;;;;6263662;22;20378;-78
2023/05/14 05:37:22;;;;;;;33.97;15.10;;;;;;;;;;6230201;23;20715;-80
2023/05/14 05:39:48;;;;;;;33.20;15.38;;;;;;;;;;6255099;23;20362;-79
2023/05/14 05:42:14;;;;;;;28.55;14.70;;;;;;;;;;6232925;23;20431;-79
2023/05/14 05:44:40;;;;;;;31.77;14.83;;;;;;;;;;6232791;23;20460;-78
2023/05/14 05:47:06;;;;;;;29.30;14.25;;;;;;;;;;6251354;23;20362;-78
2023/05/14 05:49:32;;;;;;;32.92;14.77;;;;;;;;;;6227877;23;20389;-77
2023/05/14 05:51:58;;;;;;;32.08;15.60;;;;;;;;;;6252712;23;20401;-77
2023/05/14 05:54:26;;;;;;;31.85;15.00;;;;;;;;;;6255121;23;20404;-77
2023/05/14 05:56:52;;;;;;;30.60;15.73;;;;;;;;;;6251980;23;20747;-79
2023/05/14 05:59:18;;;;;;;31.63;15.48;;;;;;;;;;6244553;23;20394;-79
2023/05/14 06:01:44;;;;;;;31.42;16.10;;;;;;;;;;6192734;23;20445;-79
2023/05/14 06:04:10;;;;;;;33.75;16.10;;;;;;;;;;6242557;23;20373;-77
2023/05/14 06:06:36;;;;;;;32.42;15.98;;;;;;;;;;6219663;23;20390;-77
2023/05/14 06:09:03;;;;;;;33.08;14.93;;;;;;;;;;6218900;23;20409;-77
2023/05/14 06:11:29;;;;;;;32.08;15.75;;;;;;;;;;6217589;23;20388;-77
2023/05/14 06:13:55;;;;;;;30.53;14.70;;;;;;;;;;6244378;22;20429;-78
2023/05/14 06:16:21;;;;;;;30.30;14.70;;;;;;;;;;6218678;23;20537;-78
2023/05/14 06:18:48;;;;;;;28.70;14.25;;;;;;;;;;6215028;23;20846;-77
2023/05/14 06:21:14;;;;;;;27.30;13.90;;;;;;;;;;6240443;23;20909;-79
2023/05/14 06:23:40;;;;;;;30.08;13.45;;;;;;;;;;6242445;23;20393;-79
2023/05/14 06:26:06;;;;;;;26.90;14.00;;;;;;;;;;6241945;23;20372;-78
2023/05/14 06:28:32;;;;;;;28.50;13.50;;;;;;;;;;6216634;23;20840;-78
2023/05/14 06:30:58;;;;;;;21.63;12.95;;;;;;;;;;6241331;23;20378;-79
2023/05/14 06:33:29;;;;;;;22.58;12.27;;;;;;;;;;6242273;23;20399;-78
2023/05/14 06:35:55;;;;;;;21.50;12.98;;;;;;;;;;6217848;23;20389;-78
2023/05/14 06:38:22;;;;;;;24.23;13.13;;;;;;;;;;6217646;23;20398;-78
2023/05/14 06:40:48;;;;;;;24.97;12.60;;;;;;;;;;6219596;23;20462;-77
2023/05/14 06:43:14;;;;;;;23.52;12.15;;;;;;;;;;6193675;23;20445;-77
2023/05/14 06:45:40;;;;;;;22.10;12.38;;;;;;;;;;6243013;23;20736;-78
2023/05/14 06:48:05;;;;;;;21.00;12.23;;;13.70;99.90;;;;;;6244084;23;20372;-78
2023/05/14 06:50:31;;;;;;;24.27;11.55;;;;;;;;;;6242801;23;20472;-78
2023/05/14 06:52:57;;;;;;;22.95;11.25;;;;;;;;;;6219994;23;20362;-79
2023/05/14 06:55:24;;;;;;;25.00;11.55;;;;;;;;;;6242703;23;20685;-78
2023/05/14 06:57:50;;;;;;;21.10;11.75;;;;;;;;;;6193073;23;20444;-79
2023/05/14 07:00:16;;;;;;;19.92;10.75;;;;;;;;;;6242893;23;20370;-79
2023/05/14 07:02:42;;;;;;;23.02;10.80;;;;;;;;;;6241349;23;20858;-77
2023/05/14 07:05:08;;;;;;;22.52;11.18;;;;;;;;;;6243568;23;20366;-77
2023/05/14 07:07:34;;;;;;;20.00;11.35;;;;;;;;;;6240021;23;20441;-76
2023/05/14 07:10:00;;;;;;;23.60;11.23;;;;;;;;;;6239671;23;20386;-77
2023/05/14 07:12:27;;;;;;;20.60;10.80;;;;;;;;;;6216108;23;20449;-79
2023/05/14 07:14:53;;;;;;;21.83;11.40;;;;;;;;;;6217182;23;20858;-78
2023/05/14 07:17:19;;;;;;;23.00;10.03;;;;;;;;;;6217703;23;20362;-77
2023/05/14 07:19:46;;;;;;;18.98;10.65;;;;;;;;;;6217576;23;20366;-78
2023/05/14 07:22:12;;;;;;;17.60;9.90;;;;;;;;;;6241917;23;20751;-78
2023/05/14 07:24:38;;;;;;;21.95;10.15;;;;;;;;;;6216070;23;20374;-78
2023/05/14 07:27:05;;;;;;;18.70;9.45;;;;;;;;;;6217212;23;20366;-78
2023/05/14 07:29:33;;;;;;;17.25;9.63;;;;;;;;;;6191470;23;20386;-77
2023/05/14 07:32:00;;;;;;;16.83;9.07;;;;;;;;;;6242060;23;20366;-79
2023/05/14 07:34:26;;;;;;;17.27;9.50;;;;;;;;;;6214310;23;20369;-78
2023/05/14 07:36:52;;;;;;;20.43;9.50;;;;;;;;;;6217004;23;20394;-79
2023/05/14 07:39:18;;;;;;;20.38;9.65;;;;;;;;;;6190791;23;20366;-79
2023/05/14 07:41:44;;;;;;;16.90;8.57;;;;;;;;;;6214880;23;20365;-79
2023/05/14 07:44:10;;;;;;;17.17;8.93;;;;;;;;;;6237799;23;20405;-80
2023/05/14 07:46:37;;;;;;;14.60;8.55;;;;;;;;;;6214040;23;20393;-79
2023/05/14 07:49:02;;;;;;;18.30;8.65;;;15.10;99.90;;;;;;6190501;23;20386;-78
2023/05/14 07:51:29;;;;;;;15.48;8.52;;;;;;;;;;6211280;23;20504;-79
2023/05/14 07:53:55;;;;;;;15.88;9.15;;;;;;;;;;6241829;23;20412;-79
2023/05/14 07:56:22;;;;;;;16.98;8.75;;;;;;;;;;6238864;23;20688;-79
2023/05/14 07:58:48;;;;;;;18.25;8.85;;;;;;;;;;6241424;23;20444;-77
2023/05/14 08:01:14;;;;;;;15.85;8.57;;;;;;;;;;6213908;23;20365;-77
2023/05/14 08:03:40;;;;;;;17.50;8.57;;;15.70;99.90;;;;;;6240160;23;20844;-78
2023/05/14 08:06:06;;;;;;;18.47;8.60;;;;;;;;;;6187934;23;20476;-79
2023/05/14 08:08:32;;;;;;;18.30;9.02;;;;;;;;;;6190698;23;20372;-78
2023/05/14 08:10:58;;;;;;;19.97;9.00;;;15.90;99.90;;;;;;6216030;23;20821;-79
2023/05/14 08:13:24;;;;;;;16.50;8.40;;;;;;;;;;6211789;23;20413;-79
2023/05/14 08:15:51;;;;;;;20.70;9.32;;;;;;;;;;6189742;23;20381;-79
2023/05/14 08:18:17;;;;;;;17.23;9.10;;;;;;;;;;6238264;23;20361;-78
2023/05/14 08:20:43;;;;;;;16.08;8.48;;;;;;;;;;6189270;23;20405;-76
2023/05/14 08:23:09;;;;;;;15.80;8.70;;;;;;;;;;6215808;23;20449;-78
2023/05/14 08:25:35;;;;;;;17.25;8.88;;;;;;;;;;6190469;23;20895;-78
2023/05/14 08:28:01;;;;;;;20.30;9.48;;;;;;;;;;6213827;23;20460;-78
2023/05/14 08:30:27;;;;;;;18.63;8.93;;;;;;;;;;6187243;23;20469;-77
2023/05/14 08:32:53;;;;;;;17.08;8.07;;;;;;;;;;6215417;23;20502;-78
2023/05/14 08:35:19;;;;;;;19.60;8.85;;;;;;;;;;6242068;23;20428;-78
2023/05/14 08:37:45;;;;;;;16.13;7.97;;;16.60;99.90;;;;;;6218898;23;20362;-78
2023/05/14 08:40:11;;;;;;;17.23;9.17;;;;;;;;;;6241199;23;20397;-78
2023/05/14 08:42:42;;;;;;;17.70;9.10;;;;;;;;;;6242271;23;20373;-77
2023/05/14 08:45:30;;;;;;;18.23;8.65;;;16.70;99.90;;;;;;6216489;23;20374;-77
2023/05/14 08:47:58;;;;;;;15.68;8.35;;;;;;;;;;6239526;23;20381;-78
2023/05/14 08:50:24;;;;;;;15.88;8.70;;;;;;;;;;6215393;23;20715;-77
2023/05/14 08:52:51;;;;;;;17.65;8.60;;;;;;;;;;6237427;23;20366;-78
2023/05/14 08:55:17;;;;;;;16.85;8.75;;;;;;;;;;6240768;23;20492;-76
2023/05/14 08:57:43;;;;;;;16.50;8.90;;;;;;;;;;6215943;23;20452;-78
2023/05/14 09:00:13;;;;;;;15.68;8.63;;;;;;;;;;6214691;23;20394;-78
2023/05/14 09:02:40;;;;;;;18.40;8.77;;;;;;;;;;6244244;22;20449;-78
2023/05/14 09:05:08;;;;;;;19.75;8.80;;;17.50;99.90;;;;;;6241589;23;20362;-78
2023/05/14 09:07:34;;;;;;;18.23;8.65;;;;;;;;;;6216089;23;20848;-78
2023/05/14 09:10:01;;;;;;;15.77;8.70;;;;;;;;;;6212820;23;20393;-77
2023/05/14 09:12:27;;;;;;;15.23;8.70;;;;;;;;;;6240401;23;20385;-78
2023/05/14 09:14:53;;;;;;;15.00;8.35;;;17.50;99.90;;;;;;6212747;23;20374;-76
2023/05/14 09:17:19;;;;;;;19.52;8.63;;;;;;;;;;6239699;23;20365;-77
2023/05/14 09:19:51;;;;;;;14.60;8.13;;;17.50;99.90;;;;;;6237954;23;20404;-76
2023/05/14 09:22:18;;;;;;;18.15;8.38;;;;;;;;;;6241942;23;20449;-76
2023/05/14 09:24:44;;;;;;;17.25;8.02;;;;;;;;;;6241180;23;20449;-77
2023/05/14 09:27:20;;;;;;;14.70;8.15;;;17.90;99.90;;;;;;6242887;23;20366;-77
2023/05/14 09:29:47;;;;;;;16.85;8.85;;;18.30;99.90;;;;;;6240380;23;20390;-77
2023/05/14 09:32:13;;;;;;;16.30;8.20;;;;;;;;;;6242140;23;20436;-80
2023/05/14 09:34:39;;;;;;;16.70;8.52;;;;;;;;;;6217010;23;20362;-79
2023/05/14 09:37:07;;;;;;;14.02;8.35;;;18.40;99.90;;;;;;6216867;23;20831;-78
2023/05/14 09:39:35;;;;;;;13.68;8.20;;;18.80;99.90;;;;;;6240429;23;20370;-79
2023/05/14 09:42:01;;;;;;;15.45;8.02;;;18.80;99.90;;;;;;6242367;23;20810;-78
2023/05/14 09:44:27;;;;;;;14.07;8.38;;;19.00;99.90;;;;;;6239653;23;20377;-76
2023/05/14 09:46:53;;;;;;;15.80;7.83;;;;;;;;;;6239625;23;20768;-78
2023/05/14 09:49:19;;;;;;;15.00;7.85;;;19.30;99.90;;;;;;6239483;23;20416;-76
2023/05/14 09:51:47;;;;;;;14.38;7.55;;;19.60;99.90;;;;;;6213587;23;20440;-77
2023/05/14 09:54:12;;;;;;;14.93;7.38;;;19.00;99.90;;;;;;6216312;23;20424;-78
2023/05/14 09:56:38;;;;;;;15.10;8.15;;;;;;;;;;6240447;23;20366;-78
2023/05/14 09:59:05;;;;;;;15.60;7.63;;;;;;;;;;6215515;23;20377;-78
2023/05/14 10:01:34;;;;;;;13.55;7.50;;;;;;;;;;6189066;23;20492;-78
2023/05/14 10:04:04;;;;;;;15.02;7.50;;;19.70;99.90;;;;;;6214552;23;20731;-78
2023/05/14 10:06:35;;;;;;;12.30;7.00;;;20.00;99.90;;;;;;6240851;23;20373;-77
2023/05/14 10:09:04;;;;;;;14.80;7.35;;;20.30;99.90;;;;;;6239431;23;20390;-78
2023/05/14 10:11:37;;;;;;;12.65;7.75;;;20.20;99.90;;;;;;6213474;23;20369;-79
2023/05/14 10:14:05;;;;;;;15.20;7.60;;;20.30;99.90;;;;;;6213474;23;20749;-77
2023/05/14 10:16:33;;;;;;;15.25;7.53;;;20.40;99.90;;;;;;6215839;23;20373;-77
2023/05/14 10:19:07;;;;;;;14.20;7.82;;;20.40;99.90;;;;;;6213978;23;20362;-77
2023/05/14 10:21:35;;;;;;;11.63;7.15;;;20.30;99.90;;;;;;6238477;23;20362;-78
2023/05/14 10:24:03;;;;;;;12.75;7.18;;;20.40;99.90;;;;;;6215743;23;20425;-77
2023/05/14 10:26:31;;;;;;;13.00;7.18;;;20.40;99.90;;;;;;6240962;23;20361;-76
2023/05/14 10:28:57;;;;;;;13.73;7.60;;;20.50;99.90;;;;;;6241171;23;20401;-76
2023/05/14 10:31:43;;;;;;;11.80;6.88;;;;;;;;;;6216948;23;20362;-78
2023/05/14 10:34:31;;;;;;;14.10;7.50;;;20.60;99.90;;;;;;6241203;23;20358;-77
2023/05/14 10:37:05;;;;;;;15.35;7.60;;;20.70;99.90;;;;;;6217436;23;20425;-78
2023/05/14 10:39:43;;;;;;;13.93;7.30;;;20.60;99.90;;;;;;6218148;23;20863;-78
2023/05/14 10:42:17;;;;;;;15.15;7.60;;;20.80;99.90;;;;;;6217767;23;20828;-78
2023/05/14 10:44:57;;;;;;;10.20;7.20;;;20.90;99.90;;;;;;6242175;23;20421;-78
2023/05/14 10:47:23;;;;;;;13.20;7.53;;;21.00;99.90;;;;;;6241966;23;20370;-78
2023/05/14 10:49:54;;;;;;;12.40;7.10;;;20.90;99.90;;;;;;6216944;23;20386;-78
2023/05/14 10:52:20;;;;;;;15.00;7.57;;;21.20;99.90;;;;;;6241464;23;20851;-77
2023/05/14 10:54:50;;;;;;;11.07;7.47;;;21.30;99.90;;;;;;6215693;23;20423;-77
2023/05/14 10:57:21;;;;;;;13.25;7.63;;;21.60;99.90;;;;;;6215027;23;20420;-77
2023/05/14 10:59:59;;;;;;;12.30;7.43;;;21.50;99.90;;;;;;6215741;23;20372;-76
2023/05/14 11:02:33;;;;;;;12.27;7.10;;;21.70;99.90;;;;;;6240463;23;20367;-75
2023/05/14 11:05:07;;;;;;;13.98;7.75;;;21.20;99.90;;;;;;6217157;23;20882;-77
2023/05/14 11:07:36;;;;;;;12.85;7.30;;;21.20;99.90;;;;;;6165522;23;20431;-79
2023/05/14 11:10:14;;;;;;;12.25;7.00;;;21.20;99.90;;;;;;6241394;23;20386;-75
2023/05/14 11:12:44;;;;;;;11.10;7.03;;;21.10;99.90;;;;;;6240871;23;20406;-77
2023/05/14 11:15:15;;;;;;;12.80;7.20;;;21.30;99.90;;;;;;6240637;23;20370;-77
2023/05/14 11:17:43;;;;;;;13.20;7.32;;;21.30;99.90;;;;;;6189365;23;20366;-77
2023/05/14 11:20:10;;;;;;;11.65;6.22;;;21.10;99.90;;;;;;6240577;23;20366;-77
2023/05/14 11:22:37;;;;;;;10.20;6.28;;;21.00;99.90;;;;;;6237806;23;20381;-75
2023/05/14 11:25:03;;;;;;;11.82;7.38;;;21.30;99.90;;;;;;6241129;23;20424;-76
2023/05/14 11:27:32;;;;;;;10.57;6.72;;;21.30;99.90;;;;;;6213455;23;20687;-77
2023/05/14 11:29:59;;;;;;;10.48;7.22;;;21.40;99.90;;;;;;6241544;23;20386;-75
2023/05/14 11:32:26;;;;;;;10.88;6.78;;;21.40;99.90;;;;;;6240331;23;20695;-75
2023/05/14 11:34:52;;;;;;;10.85;6.60;;;21.60;99.90;;;;;;6214216;23;20447;-76
2023/05/14 11:37:17;;;;;;;11.45;7.05;;;21.80;99.90;;;;;;6239835;23;20361;-76
2023/05/14 11:39:51;;;;;;;14.07;7.23;;;22.40;99.90;;;;;;6241793;23;20400;-75
2023/05/14 11:42:18;;;;;;;12.23;7.28;;;22.20;99.90;;;;;;6241134;23;20370;-74
2023/05/14 11:44:50;;;;;;;11.15;6.75;;;22.30;99.90;;;;;;6242261;22;20424;-75
2023/05/14 11:47:17;;;;;;;12.13;6.80;;;22.60;99.90;;;;;;6242542;23;20370;-74
2023/05/14 11:49:43;;;;;;;11.68;6.20;;;22.50;99.90;;;;;;6240438;23;20386;-75
2023/05/14 11:52:11;;;;;;;9.85;5.80;;;22.50;99.90;;;;;;6211868;23;20699;-75
2023/05/14 11:54:37;;;;;;;9.88;5.97;;;23.20;99.90;;;;;;6211838;23;20388;-75
2023/05/14 11:57:11;;;;;;;8.95;5.57;;;23.20;99.90;;;;;;6214051;23;20967;-74
2023/05/14 11:59:38;;;;;;;8.63;5.53;;;23.60;99.90;;;;;;6238147;23;20385;-76
2023/05/14 12:02:04;;;;;;;9.43;6.03;;;23.50;99.90;;;;;;6236215;23;20883;-75
2023/05/14 12:04:30;;;;;;;9.63;6.20;;;23.70;99.90;;;;;;6212302;23;20370;-75
2023/05/14 12:06:58;;;;;;;8.85;5.95;;;23.70;99.90;;;;;;6238375;23;20407;-75
2023/05/14 12:09:24;;;;;;;10.02;5.50;;;23.60;99.90;;;;;;6239163;23;20444;-75
2023/05/14 12:11:50;;;;;;;10.57;6.22;;;24.10;99.90;;;;;;6213290;23;20390;-76
2023/05/14 12:14:19;;;;;;;10.10;5.60;;;24.70;99.90;;;;;;6216228;23;20372;-75
2023/05/14 12:16:46;;;;;;;11.23;5.35;;;24.20;99.90;;;;;;6240626;22;20358;-74
2023/05/14 12:19:14;;;;;;;9.40;5.37;;;24.20;99.90;;;;;;6239136;23;20471;-76
2023/05/14 12:21:42;;;;;;;8.38;5.47;;;24.30;99.90;;;;;;6241648;23;20362;-77
2023/05/14 12:24:11;;;;;;;8.77;5.43;;;24.50;99.90;;;;;;6240499;23;20374;-75
2023/05/14 12:26:37;;;;;;;7.43;4.95;;;24.30;99.90;;;;;;6240478;23;20374;-75
2023/05/14 12:29:05;;;;;;;10.45;5.30;;;24.40;99.90;;;;;;6241968;23;20369;-75
2023/05/14 12:31:35;;;;;;;10.43;5.23;;;24.20;99.90;;;;;;6216211;23;20421;-75
2023/05/14 12:34:03;;;;;;;9.90;5.32;;;24.40;99.90;;;;;;6238469;23;20871;-75
2023/05/14 12:36:29;;;;;;;6.90;4.93;;;24.20;99.90;;;;;;6241233;23;20358;-75
2023/05/14 12:39:02;;;;;;;8.65;4.85;;;24.20;99.90;;;;;;6239148;23;20366;-76
2023/05/14 12:41:30;;;;;;;10.93;4.95;;;24.30;99.90;;;;;;6216041;23;20859;-75
2023/05/14 12:43:55;;;;;;;9.63;4.53;;;24.10;99.90;;;;;;6241157;23;20685;-76
2023/05/14 12:46:21;;;;;;;8.55;5.28;;;24.10;99.90;;;;;;6240588;23;20855;-76
2023/05/14 12:48:47;;;;;;;8.50;5.18;;;24.00;99.90;;;;;;6240477;23;20366;-74
2023/05/14 12:51:13;;;;;;;9.38;5.50;;;23.80;99.90;;;;;;6240421;23;20404;-76
2023/05/14 12:53:39;;;;;;;9.03;5.30;;;23.80;99.90;;;;;;6240270;23;20366;-76
2023/05/14 12:56:08;;;;;;;7.55;5.20;;;23.80;99.90;;;;;;6189647;23;20358;-75
2023/05/14 12:58:34;;;;;;;8.47;4.90;;;23.70;99.90;;;;;;6239480;23;20365;-75
2023/05/14 13:01:00;;;;;;;12.30;5.33;;;23.90;99.90;;;;;;6236887;23;20689;-76
2023/05/14 13:03:26;;;;;;;11.05;5.40;;;23.90;99.90;;;;;;6237609;23;20370;-75
2023/05/14 13:05:52;;;;;;;9.27;5.60;;;24.00;99.90;;;;;;6240467;23;20912;-75
2023/05/14 13:08:31;;;;;;;13.93;5.45;;;24.20;99.90;;;;;;6238383;23;20366;-75
2023/05/14 13:10:57;;;;;;;9.02;5.05;;;24.10;99.90;;;;;;6214159;23;20417;-75
2023/05/14 13:13:23;;;;;;;8.85;5.57;;;24.10;99.90;;;;;;6214869;23;20693;-75
2023/05/14 13:15:49;;;;;;;11.80;5.60;;;24.00;99.90;;;;;;6239752;23;20456;-76
2023/05/14 13:18:16;;;;;;;9.40;5.10;;;24.10;99.90;;;;;;6211433;23;20445;-75
2023/05/14 13:20:42;;;;;;;9.70;5.43;;;24.20;99.90;;;;;;6237371;23;20369;-76
2023/05/14 13:23:07;;;;;;;9.77;5.50;;;24.30;99.90;;;;;;6238792;23;20460;-76
2023/05/14 13:25:34;;;;;;;9.73;5.90;;;24.20;99.90;;;;;;6217812;23;20398;-77
2023/05/14 13:28:00;;;;;;;9.48;5.45;;;24.60;99.90;;;;;;6216621;23;20365;-76
2023/05/14 13:30:26;;;;;;;9.35;5.30;;;24.50;99.90;;;;;;6239730;23;20385;-76
2023/05/14 13:32:51;;;;;;;10.20;5.47;;;24.60;99.90;;;;;;6239053;23;20362;-77
2023/05/14 13:35:17;;;;;;;8.13;5.47;;;24.80;99.90;;;;;;6213756;23;20373;-77
2023/05/14 13:37:43;;;;;;;8.90;5.40;;;24.80;99.90;;;;;;6239923;23;20449;-79
2023/05/14 13:40:09;;;;;;;8.73;5.80;;;23.60;99.80;;;;;;6240551;23;20374;-79
2023/05/14 13:42:36;;;;;;;9.60;5.50;;;25.00;99.10;;;;;;6185757;23;20376;-78